sensor_id;sensor_type;location;lat;lon;timestamp;P1;durP1;ratioP1;P2;durP2;ratioP2
33786;SDS011;29742;51.540;9.358;2023-04-24T00:02:28;0.10;;;0.10;;
33786;SDS011;29742;51.540;9.358;2023-04-24T00:07:29;0.00;;;0.00;;
33786;SDS011;29742;51.540;9.358;2023-04-24T00:12:29;0.10;;;0.00;;
33786;SDS011;29742;51.540;9.358;2023-04-24T00:17:30;0.00;;;0.00;;
33786;SDS011;29742;51.540;9.358;2023-04-24T00:22:31;0.00;;;0.00;;
33786;SDS011;29742;51.540;9.358;2023-04-24T00:27:31;0.00;;;0.00;;
33786;SDS011;29742;51.540;9.358;2023-04-24T00:32:31;0.00;;;0.00;;
33786;SDS011;29742;51.540;9.358;2023-04-24T00:37:32;0.00;;;0.00;;
33786;SDS011;29742;51.540;9.358;2023-04-24T00:42:32;0.00;;;0.00;;
33786;SDS011;29742;51.540;9.358;2023-04-24T00:47:33;0.25;;;0.08;;
33786;SDS011;29742;51.540;9.358;2023-04-24T00:52:34;0.10;;;0.10;;
33786;SDS011;29742;51.540;9.358;2023-04-24T00:57:34;0.00;;;0.00;;
33786;SDS011;29742;51.540;9.358;2023-04-24T01:02:36;0.00;;;0.00;;
33786;SDS011;29742;51.540;9.358;2023-04-24T01:07:40;0.00;;;0.00;;
33786;SDS011;29742;51.540;9.358;2023-04-24T01:12:43;0.10;;;0.10;;
33786;SDS011;29742;51.540;9.358;2023-04-24T01:17:44;0.35;;;0.00;;
33786;SDS011;29742;51.540;9.358;2023-04-24T01:22:45;0.00;;;0.00;;
33786;SDS011;29742;51.540;9.358;2023-04-24T01:27:45;0.00;;;0.00;;
33786;SDS011;29742;51.540;9.358;2023-04-24T01:32:46;0.00;;;0.00;;
33786;SDS011;29742;51.540;9.358;2023-04-24T01:37:46;0.00;;;0.00;;
33786;SDS011;29742;51.540;9.358;2023-04-24T01:42:46;0.00;;;0.00;;
33786;SDS011;29742;51.540;9.358;2023-04-24T01:47:47;0.00;;;0.00;;
33786;SDS011;29742;51.540;9.358;2023-04-24T01:52:48;0.00;;;0.00;;
33786;SDS011;29742;51.540;9.358;2023-04-24T01:57:49;0.10;;;0.03;;
33786;SDS011;29742;51.540;9.358;2023-04-24T02:02:50;0.00;;;0.00;;
33786;SDS011;29742;51.540;9.358;2023-04-24T02:07:50;0.00;;;0.00;;
33786;SDS011;29742;51.540;9.358;2023-04-24T02:12:51;0.00;;;0.00;;
33786;SDS011;29742;51.540;9.358;2023-04-24T02:17:51;0.20;;;0.00;;
33786;SDS011;29742;51.540;9.358;2023-04-24T02:22:51;0.00;;;0.00;;
33786;SDS011;29742;51.540;9.358;2023-04-24T02:27:52;0.00;;;0.00;;
33786;SDS011;29742;51.540;9.358;2023-04-24T02:32:52;0.00;;;0.00;;
33786;SDS011;29742;51.540;9.358;2023-04-24T02:37:52;0.00;;;0.00;;
33786;SDS011;29742;51.540;9.358;2023-04-24T02:42:53;0.00;;;0.00;;
33786;SDS011;29742;51.540;9.358;2023-04-24T02:47:53;0.00;;;0.00;;
33786;SDS011;29742;51.540;9.358;2023-04-24T02:52:54;0.22;;;0.08;;
33786;SDS011;29742;51.540;9.358;2023-04-24T02:57:54;0.00;;;0.00;;
33786;SDS011;29742;51.540;9.358;2023-04-24T03:02:54;0.00;;;0.00;;
33786;SDS011;29742;51.540;9.358;2023-04-24T03:07:55;0.10;;;0.00;;
33786;SDS011;29742;51.540;9.358;2023-04-24T03:12:55;0.00;;;0.00;;
33786;SDS011;29742;51.540;9.358;2023-04-24T03:17:56;0.15;;;0.00;;
33786;SDS011;29742;51.540;9.358;2023-04-24T03:22:56;0.03;;;0.00;;
33786;SDS011;29742;51.540;9.358;2023-04-24T03:27:57;0.00;;;0.00;;
33786;SDS011;29742;51.540;9.358;2023-04-24T03:32:57;0.00;;;0.00;;
33786;SDS011;29742;51.540;9.358;2023-04-24T03:37:57;0.00;;;0.00;;
33786;SDS011;29742;51.540;9.358;2023-04-24T03:42:58;0.05;;;0.03;;
33786;SDS011;29742;51.540;9.358;2023-04-24T03:47:58;0.00;;;0.00;;
33786;SDS011;29742;51.540;9.358;2023-04-24T03:52:59;0.28;;;0.05;;
33786;SDS011;29742;51.540;9.358;2023-04-24T03:57:59;0.17;;;0.10;;
33786;SDS011;29742;51.540;9.358;2023-04-24T04:02:59;1.20;;;0.40;;
33786;SDS011;29742;51.540;9.358;2023-04-24T04:08:00;0.55;;;0.10;;
33786;SDS011;29742;51.540;9.358;2023-04-24T04:13:00;0.30;;;0.10;;
33786;SDS011;29742;51.540;9.358;2023-04-24T04:18:01;0.00;;;0.00;;
33786;SDS011;29742;51.540;9.358;2023-04-24T04:23:01;0.00;;;0.00;;
33786;SDS011;29742;51.540;9.358;2023-04-24T04:28:01;0.08;;;0.08;;
33786;SDS011;29742;51.540;9.358;2023-04-24T04:33:02;0.00;;;0.00;;
33786;SDS011;29742;51.540;9.358;2023-04-24T04:38:02;0.00;;;0.00;;
33786;SDS011;29742;51.540;9.358;2023-04-24T04:43:04;0.00;;;0.00;;
33786;SDS011;29742;51.540;9.358;2023-04-24T04:48:04;0.10;;;0.10;;
33786;SDS011;29742;51.540;9.358;2023-04-24T04:53:07;0.08;;;0.08;;
33786;SDS011;29742;51.540;9.358;2023-04-24T04:58:07;0.10;;;0.10;;
33786;SDS011;29742;51.540;9.358;2023-04-24T05:03:07;0.00;;;0.00;;
33786;SDS011;29742;51.540;9.358;2023-04-24T05:08:08;0.43;;;0.10;;
33786;SDS011;29742;51.540;9.358;2023-04-24T05:13:08;0.15;;;0.05;;
33786;SDS011;29742;51.540;9.358;2023-04-24T05:18:09;0.00;;;0.00;;
33786;SDS011;29742;51.540;9.358;2023-04-24T05:23:10;0.10;;;0.10;;
33786;SDS011;29742;51.540;9.358;2023-04-24T05:28:11;0.00;;;0.00;;
33786;SDS011;29742;51.540;9.358;2023-04-24T05:33:12;0.10;;;0.10;;
33786;SDS011;29742;51.540;9.358;2023-04-24T05:38:14;0.10;;;0.10;;
33786;SDS011;29742;51.540;9.358;2023-04-24T05:43:17;0.00;;;0.00;;
33786;SDS011;29742;51.540;9.358;2023-04-24T05:48:18;0.00;;;0.00;;
33786;SDS011;29742;51.540;9.358;2023-04-24T05:53:18;0.28;;;0.05;;
33786;SDS011;29742;51.540;9.358;2023-04-24T05:58:19;0.00;;;0.00;;
33786;SDS011;29742;51.540;9.358;2023-04-24T06:03:19;0.00;;;0.00;;
33786;SDS011;29742;51.540;9.358;2023-04-24T06:08:19;0.20;;;0.00;;
33786;SDS011;29742;51.540;9.358;2023-04-24T06:13:20;0.00;;;0.00;;
33786;SDS011;29742;51.540;9.358;2023-04-24T06:18:20;0.00;;;0.00;;
33786;SDS011;29742;51.540;9.358;2023-04-24T06:23:21;0.00;;;0.00;;
33786;SDS011;29742;51.540;9.358;2023-04-24T06:28:21;0.00;;;0.00;;
33786;SDS011;29742;51.540;9.358;2023-04-24T06:33:21;0.30;;;0.00;;
33786;SDS011;29742;51.540;9.358;2023-04-24T06:38:22;0.00;;;0.00;;
33786;SDS011;29742;51.540;9.358;2023-04-24T06:43:22;0.00;;;0.00;;
33786;SDS011;29742;51.540;9.358;2023-04-24T06:48:23;0.28;;;0.20;;
33786;SDS011;29742;51.540;9.358;2023-04-24T06:53:24;0.00;;;0.00;;
33786;SDS011;29742;51.540;9.358;2023-04-24T06:58:25;0.10;;;0.10;;
33786;SDS011;29742;51.540;9.358;2023-04-24T07:03:25;0.08;;;0.05;;
33786;SDS011;29742;51.540;9.358;2023-04-24T07:08:25;0.20;;;0.20;;
33786;SDS011;29742;51.540;9.358;2023-04-24T07:13:26;0.20;;;0.20;;
33786;SDS011;29742;51.540;9.358;2023-04-24T07:18:26;0.10;;;0.10;;
33786;SDS011;29742;51.540;9.358;2023-04-24T07:23:27;0.70;;;0.20;;
33786;SDS011;29742;51.540;9.358;2023-04-24T07:28:27;0.03;;;0.00;;
33786;SDS011;29742;51.540;9.358;2023-04-24T07:33:30;0.20;;;0.20;;
33786;SDS011;29742;51.540;9.358;2023-04-24T07:38:31;0.70;;;0.10;;
33786;SDS011;29742;51.540;9.358;2023-04-24T07:43:32;0.10;;;0.10;;
33786;SDS011;29742;51.540;9.358;2023-04-24T07:48:32;0.10;;;0.10;;
33786;SDS011;29742;51.540;9.358;2023-04-24T07:53:32;0.00;;;0.00;;
33786;SDS011;29742;51.540;9.358;2023-04-24T07:58:33;0.30;;;0.15;;
33786;SDS011;29742;51.540;9.358;2023-04-24T08:03:33;0.70;;;0.10;;
33786;SDS011;29742;51.540;9.358;2023-04-24T08:08:34;0.10;;;0.10;;
33786;SDS011;29742;51.540;9.358;2023-04-24T08:13:35;0.10;;;0.05;;
33786;SDS011;29742;51.540;9.358;2023-04-24T08:18:35;0.28;;;0.17;;
33786;SDS011;29742;51.540;9.358;2023-04-24T08:23:35;0.05;;;0.05;;
33786;SDS011;29742;51.540;9.358;2023-04-24T08:28:36;0.28;;;0.10;;
33786;SDS011;29742;51.540;9.358;2023-04-24T08:33:37;0.47;;;0.10;;
33786;SDS011;29742;51.540;9.358;2023-04-24T08:38:37;0.20;;;0.20;;
33786;SDS011;29742;51.540;9.358;2023-04-24T08:43:38;0.28;;;0.10;;
33786;SDS011;29742;51.540;9.358;2023-04-24T08:48:39;0.13;;;0.05;;
33786;SDS011;29742;51.540;9.358;2023-04-24T08:53:40;0.10;;;0.10;;
33786;SDS011;29742;51.540;9.358;2023-04-24T08:58:40;0.10;;;0.10;;
33786;SDS011;29742;51.540;9.358;2023-04-24T09:03:40;0.03;;;0.03;;
33786;SDS011;29742;51.540;9.358;2023-04-24T09:08:41;0.05;;;0.00;;
33786;SDS011;29742;51.540;9.358;2023-04-24T09:13:42;0.10;;;0.10;;
33786;SDS011;29742;51.540;9.358;2023-04-24T09:18:43;1.25;;;0.30;;
33786;SDS011;29742;51.540;9.358;2023-04-24T09:23:43;0.47;;;0.28;;
33786;SDS011;29742;51.540;9.358;2023-04-24T09:28:44;0.13;;;0.13;;
33786;SDS011;29742;51.540;9.358;2023-04-24T09:33:53;0.73;;;0.32;;
33786;SDS011;29742;51.540;9.358;2023-04-24T09:38:58;0.10;;;0.10;;
33786;SDS011;29742;51.540;9.358;2023-04-24T09:44:10;0.68;;;0.20;;
33786;SDS011;29742;51.540;9.358;2023-04-24T09:49:15;0.10;;;0.10;;
33786;SDS011;29742;51.540;9.358;2023-04-24T09:54:17;0.10;;;0.10;;
33786;SDS011;29742;51.540;9.358;2023-04-24T10:04:21;0.45;;;0.13;;
33786;SDS011;29742;51.540;9.358;2023-04-24T10:09:26;0.13;;;0.13;;
33786;SDS011;29742;51.540;9.358;2023-04-24T10:14:27;0.15;;;0.10;;
33786;SDS011;29742;51.540;9.358;2023-04-24T10:19:27;0.13;;;0.10;;
33786;SDS011;29742;51.540;9.358;2023-04-24T10:24:29;0.10;;;0.10;;
33786;SDS011;29742;51.540;9.358;2023-04-24T10:29:30;0.10;;;0.10;;
33786;SDS011;29742;51.540;9.358;2023-04-24T10:34:31;0.13;;;0.13;;
33786;SDS011;29742;51.540;9.358;2023-04-24T10:39:31;0.17;;;0.10;;
33786;SDS011;29742;51.540;9.358;2023-04-24T10:44:36;0.22;;;0.10;;
33786;SDS011;29742;51.540;9.358;2023-04-24T10:49:36;0.10;;;0.10;;
33786;SDS011;29742;51.540;9.358;2023-04-24T10:59:40;0.10;;;0.10;;
33786;SDS011;29742;51.540;9.358;2023-04-24T11:04:41;0.10;;;0.10;;
33786;SDS011;29742;51.540;9.358;2023-04-24T11:09:42;0.00;;;0.00;;
33786;SDS011;29742;51.540;9.358;2023-04-24T11:20:03;0.10;;;0.10;;
33786;SDS011;29742;51.540;9.358;2023-04-24T11:25:09;0.10;;;0.10;;
33786;SDS011;29742;51.540;9.358;2023-04-24T11:30:11;0.10;;;0.10;;
33786;SDS011;29742;51.540;9.358;2023-04-24T11:35:19;0.00;;;0.00;;
33786;SDS011;29742;51.540;9.358;2023-04-24T11:40:21;0.00;;;0.00;;
33786;SDS011;29742;51.540;9.358;2023-04-24T11:45:28;0.05;;;0.00;;
33786;SDS011;29742;51.540;9.358;2023-04-24T11:50:30;0.30;;;0.28;;
33786;SDS011;29742;51.540;9.358;2023-04-24T11:55:30;0.00;;;0.00;;
33786;SDS011;29742;51.540;9.358;2023-04-24T12:00:31;0.00;;;0.00;;
33786;SDS011;29742;51.540;9.358;2023-04-24T12:05:34;0.30;;;0.30;;
33786;SDS011;29742;51.540;9.358;2023-04-24T12:10:34;0.00;;;0.00;;
33786;SDS011;29742;51.540;9.358;2023-04-24T12:15:35;0.15;;;0.00;;
33786;SDS011;29742;51.540;9.358;2023-04-24T12:20:40;0.00;;;0.00;;
33786;SDS011;29742;51.540;9.358;2023-04-24T12:25:40;0.10;;;0.00;;
33786;SDS011;29742;51.540;9.358;2023-04-24T12:30:47;0.00;;;0.00;;
33786;SDS011;29742;51.540;9.358;2023-04-24T12:35:51;0.00;;;0.00;;
33786;SDS011;29742;51.540;9.358;2023-04-24T12:46:05;0.55;;;0.10;;
33786;SDS011;29742;51.540;9.358;2023-04-24T12:51:05;0.00;;;0.00;;
33786;SDS011;29742;51.540;9.358;2023-04-24T12:56:06;0.00;;;0.00;;
33786;SDS011;29742;51.540;9.358;2023-04-24T13:01:06;0.10;;;0.00;;
33786;SDS011;29742;51.540;9.358;2023-04-24T13:06:07;0.05;;;0.00;;
33786;SDS011;29742;51.540;9.358;2023-04-24T13:11:07;0.00;;;0.00;;
33786;SDS011;29742;51.540;9.358;2023-04-24T13:16:07;0.35;;;0.28;;
33786;SDS011;29742;51.540;9.358;2023-04-24T13:21:08;0.00;;;0.00;;
33786;SDS011;29742;51.540;9.358;2023-04-24T13:26:08;0.00;;;0.00;;
33786;SDS011;29742;51.540;9.358;2023-04-24T13:31:09;0.10;;;0.10;;
33786;SDS011;29742;51.540;9.358;2023-04-24T13:36:09;0.00;;;0.00;;
33786;SDS011;29742;51.540;9.358;2023-04-24T13:41:10;0.17;;;0.00;;
33786;SDS011;29742;51.540;9.358;2023-04-24T13:46:10;0.00;;;0.00;;
33786;SDS011;29742;51.540;9.358;2023-04-24T13:51:10;0.00;;;0.00;;
33786;SDS011;29742;51.540;9.358;2023-04-24T13:56:11;0.00;;;0.00;;
33786;SDS011;29742;51.540;9.358;2023-04-24T14:01:12;0.00;;;0.00;;
33786;SDS011;29742;51.540;9.358;2023-04-24T14:06:13;0.05;;;0.00;;
33786;SDS011;29742;51.540;9.358;2023-04-24T14:11:13;0.10;;;0.00;;
33786;SDS011;29742;51.540;9.358;2023-04-24T14:16:14;0.00;;;0.00;;
33786;SDS011;29742;51.540;9.358;2023-04-24T14:21:15;0.08;;;0.00;;
33786;SDS011;29742;51.540;9.358;2023-04-24T14:26:16;0.30;;;0.10;;
33786;SDS011;29742;51.540;9.358;2023-04-24T14:31:16;0.00;;;0.00;;
33786;SDS011;29742;51.540;9.358;2023-04-24T14:36:16;0.00;;;0.00;;
33786;SDS011;29742;51.540;9.358;2023-04-24T14:41:17;0.00;;;0.00;;
33786;SDS011;29742;51.540;9.358;2023-04-24T14:46:17;0.20;;;0.10;;
33786;SDS011;29742;51.540;9.358;2023-04-24T14:51:17;0.50;;;0.10;;
33786;SDS011;29742;51.540;9.358;2023-04-24T14:56:18;0.13;;;0.00;;
33786;SDS011;29742;51.540;9.358;2023-04-24T15:01:18;0.40;;;0.10;;
33786;SDS011;29742;51.540;9.358;2023-04-24T15:06:19;0.30;;;0.10;;
33786;SDS011;29742;51.540;9.358;2023-04-24T15:11:20;0.10;;;0.10;;
33786;SDS011;29742;51.540;9.358;2023-04-24T15:16:20;0.43;;;0.30;;
33786;SDS011;29742;51.540;9.358;2023-04-24T15:21:21;0.10;;;0.10;;
33786;SDS011;29742;51.540;9.358;2023-04-24T15:26:22;0.17;;;0.10;;
33786;SDS011;29742;51.540;9.358;2023-04-24T15:31:23;0.20;;;0.20;;
33786;SDS011;29742;51.540;9.358;2023-04-24T15:36:23;0.47;;;0.20;;
33786;SDS011;29742;51.540;9.358;2023-04-24T15:41:24;0.10;;;0.10;;
33786;SDS011;29742;51.540;9.358;2023-04-24T15:46:24;0.20;;;0.17;;
33786;SDS011;29742;51.540;9.358;2023-04-24T15:51:24;0.10;;;0.10;;
33786;SDS011;29742;51.540;9.358;2023-04-24T15:56:25;0.40;;;0.20;;
33786;SDS011;29742;51.540;9.358;2023-04-24T16:01:25;0.22;;;0.17;;
33786;SDS011;29742;51.540;9.358;2023-04-24T16:06:26;0.10;;;0.10;;
33786;SDS011;29742;51.540;9.358;2023-04-24T16:11:26;0.20;;;0.20;;
33786;SDS011;29742;51.540;9.358;2023-04-24T16:16:27;0.22;;;0.20;;
33786;SDS011;29742;51.540;9.358;2023-04-24T16:21:27;0.15;;;0.15;;
33786;SDS011;29742;51.540;9.358;2023-04-24T16:26:27;0.20;;;0.20;;
33786;SDS011;29742;51.540;9.358;2023-04-24T16:31:28;0.52;;;0.20;;
33786;SDS011;29742;51.540;9.358;2023-04-24T16:36:28;0.10;;;0.10;;
33786;SDS011;29742;51.540;9.358;2023-04-24T16:41:29;0.30;;;0.17;;
33786;SDS011;29742;51.540;9.358;2023-04-24T16:46:32;0.43;;;0.23;;
33786;SDS011;29742;51.540;9.358;2023-04-24T16:51:33;0.30;;;0.20;;
33786;SDS011;29742;51.540;9.358;2023-04-24T16:56:33;0.10;;;0.10;;
33786;SDS011;29742;51.540;9.358;2023-04-24T17:01:34;0.30;;;0.20;;
33786;SDS011;29742;51.540;9.358;2023-04-24T17:06:34;0.20;;;0.20;;
33786;SDS011;29742;51.540;9.358;2023-04-24T17:11:34;0.20;;;0.10;;
33786;SDS011;29742;51.540;9.358;2023-04-24T17:16:35;0.20;;;0.20;;
33786;SDS011;29742;51.540;9.358;2023-04-24T17:21:36;0.25;;;0.10;;
33786;SDS011;29742;51.540;9.358;2023-04-24T17:26:36;0.20;;;0.20;;
33786;SDS011;29742;51.540;9.358;2023-04-24T17:31:36;0.20;;;0.13;;
33786;SDS011;29742;51.540;9.358;2023-04-24T17:36:37;0.17;;;0.17;;
33786;SDS011;29742;51.540;9.358;2023-04-24T17:41:38;0.08;;;0.08;;
33786;SDS011;29742;51.540;9.358;2023-04-24T17:46:38;0.20;;;0.20;;
33786;SDS011;29742;51.540;9.358;2023-04-24T17:51:38;1.15;;;0.20;;
33786;SDS011;29742;51.540;9.358;2023-04-24T17:56:39;0.52;;;0.20;;
33786;SDS011;29742;51.540;9.358;2023-04-24T18:01:40;0.30;;;0.20;;
33786;SDS011;29742;51.540;9.358;2023-04-24T18:06:40;0.10;;;0.10;;
33786;SDS011;29742;51.540;9.358;2023-04-24T18:11:41;0.63;;;0.10;;
33786;SDS011;29742;51.540;9.358;2023-04-24T18:16:41;0.55;;;0.20;;
33786;SDS011;29742;51.540;9.358;2023-04-24T18:21:42;2.40;;;0.60;;
33786;SDS011;29742;51.540;9.358;2023-04-24T18:26:42;3.00;;;0.52;;
33786;SDS011;29742;51.540;9.358;2023-04-24T18:31:42;2.33;;;0.55;;
33786;SDS011;29742;51.540;9.358;2023-04-24T18:36:43;0.68;;;0.45;;
33786;SDS011;29742;51.540;9.358;2023-04-24T18:41:43;1.98;;;0.45;;
33786;SDS011;29742;51.540;9.358;2023-04-24T18:46:44;1.35;;;0.50;;
33786;SDS011;29742;51.540;9.358;2023-04-24T18:51:44;2.05;;;0.52;;
33786;SDS011;29742;51.540;9.358;2023-04-24T18:56:45;1.00;;;0.45;;
33786;SDS011;29742;51.540;9.358;2023-04-24T19:01:45;1.27;;;0.30;;
33786;SDS011;29742;51.540;9.358;2023-04-24T19:06:46;1.95;;;0.35;;
33786;SDS011;29742;51.540;9.358;2023-04-24T19:11:46;1.05;;;0.40;;
33786;SDS011;29742;51.540;9.358;2023-04-24T19:16:47;0.15;;;0.15;;
33786;SDS011;29742;51.540;9.358;2023-04-24T19:21:47;1.65;;;0.25;;
33786;SDS011;29742;51.540;9.358;2023-04-24T19:26:49;0.50;;;0.30;;
33786;SDS011;29742;51.540;9.358;2023-04-24T19:31:49;2.55;;;0.47;;
33786;SDS011;29742;51.540;9.358;2023-04-24T19:36:49;1.70;;;0.47;;
33786;SDS011;29742;51.540;9.358;2023-04-24T19:41:50;0.52;;;0.32;;
33786;SDS011;29742;51.540;9.358;2023-04-24T19:46:50;0.30;;;0.20;;
33786;SDS011;29742;51.540;9.358;2023-04-24T19:51:51;0.20;;;0.10;;
33786;SDS011;29742;51.540;9.358;2023-04-24T19:56:51;0.40;;;0.30;;
33786;SDS011;29742;51.540;9.358;2023-04-24T20:01:51;0.60;;;0.20;;
33786;SDS011;29742;51.540;9.358;2023-04-24T20:06:52;0.22;;;0.13;;
33786;SDS011;29742;51.540;9.358;2023-04-24T20:11:53;0.10;;;0.10;;
33786;SDS011;29742;51.540;9.358;2023-04-24T20:16:53;0.10;;;0.10;;
33786;SDS011;29742;51.540;9.358;2023-04-24T20:21:54;0.30;;;0.30;;
33786;SDS011;29742;51.540;9.358;2023-04-24T20:26:54;0.20;;;0.10;;
33786;SDS011;29742;51.540;9.358;2023-04-24T20:31:56;0.63;;;0.30;;
33786;SDS011;29742;51.540;9.358;2023-04-24T20:36:56;0.10;;;0.10;;
33786;SDS011;29742;51.540;9.358;2023-04-24T20:41:58;0.22;;;0.10;;
33786;SDS011;29742;51.540;9.358;2023-04-24T20:46:58;0.20;;;0.20;;
33786;SDS011;29742;51.540;9.358;2023-04-24T20:51:59;0.25;;;0.25;;
33786;SDS011;29742;51.540;9.358;2023-04-24T20:56:59;0.20;;;0.20;;
33786;SDS011;29742;51.540;9.358;2023-04-24T21:02:00;0.20;;;0.20;;
33786;SDS011;29742;51.540;9.358;2023-04-24T21:07:02;0.50;;;0.28;;
33786;SDS011;29742;51.540;9.358;2023-04-24T21:12:02;0.20;;;0.10;;
33786;SDS011;29742;51.540;9.358;2023-04-24T21:17:02;0.10;;;0.10;;
33786;SDS011;29742;51.540;9.358;2023-04-24T21:22:03;0.20;;;0.20;;
33786;SDS011;29742;51.540;9.358;2023-04-24T21:27:03;0.47;;;0.30;;
33786;SDS011;29742;51.540;9.358;2023-04-24T21:32:04;0.10;;;0.10;;
33786;SDS011;29742;51.540;9.358;2023-04-24T21:37:04;0.70;;;0.40;;
33786;SDS011;29742;51.540;9.358;2023-04-24T21:42:05;0.10;;;0.10;;
33786;SDS011;29742;51.540;9.358;2023-04-24T21:47:06;0.13;;;0.10;;
33786;SDS011;29742;51.540;9.358;2023-04-24T21:52:06;1.05;;;0.30;;
33786;SDS011;29742;51.540;9.358;2023-04-24T21:57:07;0.10;;;0.10;;
33786;SDS011;29742;51.540;9.358;2023-04-24T22:02:07;0.15;;;0.15;;
33786;SDS011;29742;51.540;9.358;2023-04-24T22:07:07;0.00;;;0.00;;
33786;SDS011;29742;51.540;9.358;2023-04-24T22:12:08;0.20;;;0.20;;
33786;SDS011;29742;51.540;9.358;2023-04-24T22:17:09;0.05;;;0.00;;
33786;SDS011;29742;51.540;9.358;2023-04-24T22:22:09;0.28;;;0.10;;
33786;SDS011;29742;51.540;9.358;2023-04-24T22:27:09;0.22;;;0.20;;
33786;SDS011;29742;51.540;9.358;2023-04-24T22:32:10;1.00;;;0.25;;
33786;SDS011;29742;51.540;9.358;2023-04-24T22:37:10;0.00;;;0.00;;
33786;SDS011;29742;51.540;9.358;2023-04-24T22:42:10;0.50;;;0.20;;
33786;SDS011;29742;51.540;9.358;2023-04-24T22:47:11;0.60;;;0.20;;
33786;SDS011;29742;51.540;9.358;2023-04-24T22:52:11;0.20;;;0.00;;
33786;SDS011;29742;51.540;9.358;2023-04-24T22:57:13;0.17;;;0.10;;
33786;SDS011;29742;51.540;9.358;2023-04-24T23:02:14;0.20;;;0.10;;
33786;SDS011;29742;51.540;9.358;2023-04-24T23:07:15;0.30;;;0.20;;
33786;SDS011;29742;51.540;9.358;2023-04-24T23:12:16;0.28;;;0.17;;
33786;SDS011;29742;51.540;9.358;2023-04-24T23:17:16;0.75;;;0.10;;
33786;SDS011;29742;51.540;9.358;2023-04-24T23:22:17;0.10;;;0.10;;
33786;SDS011;29742;51.540;9.358;2023-04-24T23:27:17;0.30;;;0.20;;
33786;SDS011;29742;51.540;9.358;2023-04-24T23:32:18;0.10;;;0.10;;
33786;SDS011;29742;51.540;9.358;2023-04-24T23:37:18;0.00;;;0.00;;
33786;SDS011;29742;51.540;9.358;2023-04-24T23:42:18;0.05;;;0.03;;
33786;SDS011;29742;51.540;9.358;2023-04-24T23:47:19;0.00;;;0.00;;
33786;SDS011;29742;51.540;9.358;2023-04-24T23:52:19;0.20;;;0.05;;
33786;SDS011;29742;51.540;9.358;2023-04-24T23:57:20;0.40;;;0.17;;
